sensor_id;sensor_type;location;lat;lon;timestamp;P1;durP1;ratioP1;P2;durP2;ratioP2
49650;SDS011;35547;55.676;37.492;2022-09-09T00:00:59;2.57;;;1.30;;
49650;SDS011;35547;55.676;37.492;2022-09-09T00:03:24;5.38;;;1.27;;
49650;SDS011;35547;55.676;37.492;2022-09-09T00:05:32;3.95;;;1.33;;
49650;SDS011;35547;55.676;37.492;2022-09-09T00:06:50;2.25;;;1.40;;
49650;SDS011;35547;55.676;37.492;2022-09-09T00:07:55;2.13;;;1.42;;
49650;SDS011;35547;55.676;37.492;2022-09-09T00:09:02;2.25;;;1.27;;
49650;SDS011;35547;55.676;37.492;2022-09-09T00:11:28;3.58;;;1.38;;
49650;SDS011;35547;55.676;37.492;2022-09-09T00:13:55;4.47;;;1.50;;
49650;SDS011;35547;55.676;37.492;2022-09-09T00:15:02;8.25;;;1.45;;
49650;SDS011;35547;55.676;37.492;2022-09-09T00:16:15;2.85;;;1.30;;
49650;SDS011;35547;55.676;37.492;2022-09-09T00:19:29;4.03;;;1.20;;
49650;SDS011;35547;55.676;37.492;2022-09-09T00:20:57;2.80;;;1.30;;
49650;SDS011;35547;55.676;37.492;2022-09-09T00:22:12;7.05;;;1.40;;
49650;SDS011;35547;55.676;37.492;2022-09-09T00:23:17;4.00;;;1.42;;
49650;SDS011;35547;55.676;37.492;2022-09-09T00:24:29;4.57;;;1.60;;
49650;SDS011;35547;55.676;37.492;2022-09-09T00:25:49;6.65;;;1.67;;
49650;SDS011;35547;55.676;37.492;2022-09-09T00:28:33;3.88;;;1.45;;
49650;SDS011;35547;55.676;37.492;2022-09-09T00:29:47;6.05;;;1.80;;
49650;SDS011;35547;55.676;37.492;2022-09-09T00:30:53;4.25;;;1.80;;
49650;SDS011;35547;55.676;37.492;2022-09-09T00:31:57;3.65;;;1.25;;
49650;SDS011;35547;55.676;37.492;2022-09-09T00:33:11;2.63;;;1.40;;
49650;SDS011;35547;55.676;37.492;2022-09-09T00:34:18;3.10;;;1.65;;
49650;SDS011;35547;55.676;37.492;2022-09-09T00:35:23;5.25;;;1.85;;
49650;SDS011;35547;55.676;37.492;2022-09-09T00:36:28;8.23;;;1.45;;
49650;SDS011;35547;55.676;37.492;2022-09-09T00:37:33;5.82;;;1.80;;
49650;SDS011;35547;55.676;37.492;2022-09-09T00:40:00;2.20;;;1.50;;
49650;SDS011;35547;55.676;37.492;2022-09-09T00:42:42;8.38;;;1.65;;
49650;SDS011;35547;55.676;37.492;2022-09-09T00:43:45;2.35;;;1.65;;
49650;SDS011;35547;55.676;37.492;2022-09-09T00:47:51;5.47;;;1.55;;
49650;SDS011;35547;55.676;37.492;2022-09-09T00:49:13;7.25;;;2.25;;
49650;SDS011;35547;55.676;37.492;2022-09-09T00:53:02;6.47;;;1.97;;
49650;SDS011;35547;55.676;37.492;2022-09-09T00:54:20;3.97;;;1.73;;
49650;SDS011;35547;55.676;37.492;2022-09-09T00:58:13;5.20;;;1.83;;
49650;SDS011;35547;55.676;37.492;2022-09-09T00:59:48;4.13;;;2.20;;
49650;SDS011;35547;55.676;37.492;2022-09-09T01:01:07;7.55;;;1.52;;
49650;SDS011;35547;55.676;37.492;2022-09-09T01:02:28;4.68;;;1.70;;
49650;SDS011;35547;55.676;37.492;2022-09-09T01:03:42;2.30;;;1.60;;
49650;SDS011;35547;55.676;37.492;2022-09-09T01:04:45;3.05;;;1.80;;
49650;SDS011;35547;55.676;37.492;2022-09-09T01:07:17;3.53;;;1.85;;
49650;SDS011;35547;55.676;37.492;2022-09-09T01:09:24;2.25;;;1.70;;
49650;SDS011;35547;55.676;37.492;2022-09-09T01:10:34;2.55;;;1.65;;
49650;SDS011;35547;55.676;37.492;2022-09-09T01:12:43;3.15;;;1.80;;
49650;SDS011;35547;55.676;37.492;2022-09-09T01:13:47;2.80;;;1.60;;
49650;SDS011;35547;55.676;37.492;2022-09-09T01:14:56;2.22;;;1.55;;
49650;SDS011;35547;55.676;37.492;2022-09-09T01:16:04;4.00;;;1.67;;
49650;SDS011;35547;55.676;37.492;2022-09-09T01:17:15;2.30;;;1.85;;
49650;SDS011;35547;55.676;37.492;2022-09-09T01:18:33;2.20;;;1.48;;
49650;SDS011;35547;55.676;37.492;2022-09-09T01:22:41;5.88;;;1.85;;
49650;SDS011;35547;55.676;37.492;2022-09-09T01:25:21;7.10;;;1.80;;
49650;SDS011;35547;55.676;37.492;2022-09-09T01:26:26;4.00;;;1.40;;
49650;SDS011;35547;55.676;37.492;2022-09-09T01:27:35;3.08;;;1.70;;
49650;SDS011;35547;55.676;37.492;2022-09-09T01:28:37;5.30;;;2.00;;
49650;SDS011;35547;55.676;37.492;2022-09-09T01:29:40;3.58;;;1.77;;
49650;SDS011;35547;55.676;37.492;2022-09-09T01:30:40;6.37;;;2.10;;
49650;SDS011;35547;55.676;37.492;2022-09-09T01:31:51;4.35;;;1.75;;
49650;SDS011;35547;55.676;37.492;2022-09-09T01:32:55;5.75;;;1.83;;
49650;SDS011;35547;55.676;37.492;2022-09-09T01:33:58;4.28;;;2.00;;
49650;SDS011;35547;55.676;37.492;2022-09-09T01:34:59;4.30;;;1.83;;
49650;SDS011;35547;55.676;37.492;2022-09-09T01:36:17;4.73;;;1.80;;
49650;SDS011;35547;55.676;37.492;2022-09-09T01:37:20;3.55;;;2.10;;
49650;SDS011;35547;55.676;37.492;2022-09-09T01:38:21;2.83;;;1.90;;
49650;SDS011;35547;55.676;37.492;2022-09-09T01:39:23;2.33;;;1.77;;
49650;SDS011;35547;55.676;37.492;2022-09-09T01:40:25;4.43;;;1.92;;
49650;SDS011;35547;55.676;37.492;2022-09-09T01:41:26;6.30;;;2.20;;
49650;SDS011;35547;55.676;37.492;2022-09-09T01:42:27;7.80;;;2.40;;
49650;SDS011;35547;55.676;37.492;2022-09-09T01:43:27;10.53;;;1.87;;
49650;SDS011;35547;55.676;37.492;2022-09-09T01:44:29;4.90;;;2.40;;
49650;SDS011;35547;55.676;37.492;2022-09-09T01:45:30;3.55;;;2.40;;
49650;SDS011;35547;55.676;37.492;2022-09-09T01:46:31;3.85;;;2.00;;
49650;SDS011;35547;55.676;37.492;2022-09-09T01:47:31;6.50;;;2.17;;
49650;SDS011;35547;55.676;37.492;2022-09-09T01:48:33;4.20;;;2.07;;
49650;SDS011;35547;55.676;37.492;2022-09-09T01:49:34;5.65;;;2.47;;
49650;SDS011;35547;55.676;37.492;2022-09-09T01:50:34;2.93;;;1.93;;
49650;SDS011;35547;55.676;37.492;2022-09-09T01:51:35;6.57;;;2.40;;
49650;SDS011;35547;55.676;37.492;2022-09-09T01:52:37;4.57;;;2.00;;
49650;SDS011;35547;55.676;37.492;2022-09-09T01:53:39;7.87;;;2.10;;
49650;SDS011;35547;55.676;37.492;2022-09-09T01:54:41;2.78;;;1.90;;
49650;SDS011;35547;55.676;37.492;2022-09-09T01:55:43;3.63;;;2.10;;
49650;SDS011;35547;55.676;37.492;2022-09-09T01:58:25;4.88;;;1.98;;
49650;SDS011;35547;55.676;37.492;2022-09-09T02:00:12;4.32;;;2.30;;
49650;SDS011;35547;55.676;37.492;2022-09-09T02:05:45;3.58;;;2.33;;
49650;SDS011;35547;55.676;37.492;2022-09-09T02:06:55;7.28;;;2.55;;
49650;SDS011;35547;55.676;37.492;2022-09-09T02:08:07;3.03;;;1.90;;
49650;SDS011;35547;55.676;37.492;2022-09-09T02:09:10;5.05;;;2.17;;
49650;SDS011;35547;55.676;37.492;2022-09-09T02:10:27;9.63;;;2.10;;
49650;SDS011;35547;55.676;37.492;2022-09-09T02:11:31;5.43;;;2.20;;
49650;SDS011;35547;55.676;37.492;2022-09-09T02:12:33;3.53;;;2.10;;
49650;SDS011;35547;55.676;37.492;2022-09-09T02:13:36;3.53;;;2.33;;
49650;SDS011;35547;55.676;37.492;2022-09-09T02:14:42;5.03;;;2.33;;
49650;SDS011;35547;55.676;37.492;2022-09-09T02:15:56;4.28;;;2.47;;
49650;SDS011;35547;55.676;37.492;2022-09-09T02:17:11;7.72;;;2.38;;
49650;SDS011;35547;55.676;37.492;2022-09-09T02:18:18;3.53;;;2.20;;
49650;SDS011;35547;55.676;37.492;2022-09-09T02:19:28;3.40;;;2.10;;
49650;SDS011;35547;55.676;37.492;2022-09-09T02:20:32;3.88;;;2.17;;
49650;SDS011;35547;55.676;37.492;2022-09-09T02:21:33;3.00;;;2.08;;
49650;SDS011;35547;55.676;37.492;2022-09-09T02:22:37;7.57;;;2.45;;
49650;SDS011;35547;55.676;37.492;2022-09-09T02:23:41;4.13;;;2.00;;
49650;SDS011;35547;55.676;37.492;2022-09-09T02:24:43;3.42;;;2.13;;
49650;SDS011;35547;55.676;37.492;2022-09-09T02:25:46;4.32;;;2.25;;
49650;SDS011;35547;55.676;37.492;2022-09-09T02:26:49;15.23;;;3.45;;
49650;SDS011;35547;55.676;37.492;2022-09-09T02:27:53;6.30;;;2.13;;
49650;SDS011;35547;55.676;37.492;2022-09-09T02:28:54;3.25;;;2.03;;
49650;SDS011;35547;55.676;37.492;2022-09-09T02:29:58;2.88;;;2.10;;
49650;SDS011;35547;55.676;37.492;2022-09-09T02:31:02;6.50;;;2.40;;
49650;SDS011;35547;55.676;37.492;2022-09-09T02:32:03;2.65;;;2.05;;
49650;SDS011;35547;55.676;37.492;2022-09-09T02:33:08;2.78;;;1.90;;
49650;SDS011;35547;55.676;37.492;2022-09-09T02:34:12;3.00;;;2.10;;
49650;SDS011;35547;55.676;37.492;2022-09-09T02:35:17;5.15;;;2.58;;
49650;SDS011;35547;55.676;37.492;2022-09-09T02:36:21;5.65;;;2.58;;
49650;SDS011;35547;55.676;37.492;2022-09-09T02:37:27;2.85;;;2.10;;
49650;SDS011;35547;55.676;37.492;2022-09-09T02:38:36;3.47;;;2.47;;
49650;SDS011;35547;55.676;37.492;2022-09-09T02:39:42;7.00;;;2.40;;
49650;SDS011;35547;55.676;37.492;2022-09-09T02:40:43;2.47;;;1.90;;
49650;SDS011;35547;55.676;37.492;2022-09-09T02:41:44;2.60;;;2.20;;
49650;SDS011;35547;55.676;37.492;2022-09-09T02:42:45;2.90;;;2.00;;
49650;SDS011;35547;55.676;37.492;2022-09-09T02:43:47;4.68;;;2.00;;
49650;SDS011;35547;55.676;37.492;2022-09-09T02:44:47;5.23;;;2.00;;
49650;SDS011;35547;55.676;37.492;2022-09-09T02:45:51;2.83;;;1.93;;
49650;SDS011;35547;55.676;37.492;2022-09-09T02:48:25;4.05;;;1.95;;
49650;SDS011;35547;55.676;37.492;2022-09-09T02:50:54;4.05;;;2.10;;
49650;SDS011;35547;55.676;37.492;2022-09-09T02:52:18;3.80;;;2.15;;
49650;SDS011;35547;55.676;37.492;2022-09-09T02:55:23;2.95;;;1.90;;
49650;SDS011;35547;55.676;37.492;2022-09-09T02:56:25;4.90;;;2.28;;
49650;SDS011;35547;55.676;37.492;2022-09-09T02:57:28;2.90;;;1.80;;
49650;SDS011;35547;55.676;37.492;2022-09-09T02:58:31;3.67;;;1.75;;
49650;SDS011;35547;55.676;37.492;2022-09-09T02:59:32;4.10;;;2.30;;
49650;SDS011;35547;55.676;37.492;2022-09-09T03:00:33;3.03;;;2.17;;
49650;SDS011;35547;55.676;37.492;2022-09-09T03:01:36;3.08;;;2.10;;
49650;SDS011;35547;55.676;37.492;2022-09-09T03:02:37;4.30;;;1.83;;
49650;SDS011;35547;55.676;37.492;2022-09-09T03:03:38;5.82;;;1.88;;
49650;SDS011;35547;55.676;37.492;2022-09-09T03:04:39;2.53;;;1.90;;
49650;SDS011;35547;55.676;37.492;2022-09-09T03:06:42;5.35;;;2.60;;
49650;SDS011;35547;55.676;37.492;2022-09-09T03:07:43;2.83;;;2.10;;
49650;SDS011;35547;55.676;37.492;2022-09-09T03:08:43;4.27;;;1.93;;
49650;SDS011;35547;55.676;37.492;2022-09-09T03:09:44;2.53;;;2.10;;
49650;SDS011;35547;55.676;37.492;2022-09-09T03:10:44;6.53;;;2.30;;
49650;SDS011;35547;55.676;37.492;2022-09-09T03:11:45;3.77;;;2.40;;
49650;SDS011;35547;55.676;37.492;2022-09-09T03:12:46;4.37;;;2.17;;
49650;SDS011;35547;55.676;37.492;2022-09-09T03:13:46;7.00;;;1.80;;
49650;SDS011;35547;55.676;37.492;2022-09-09T03:14:48;4.57;;;2.05;;
49650;SDS011;35547;55.676;37.492;2022-09-09T03:15:49;3.58;;;1.70;;
49650;SDS011;35547;55.676;37.492;2022-09-09T03:17:52;3.42;;;1.80;;
49650;SDS011;35547;55.676;37.492;2022-09-09T03:18:52;2.17;;;1.80;;
49650;SDS011;35547;55.676;37.492;2022-09-09T03:19:53;3.17;;;2.20;;
49650;SDS011;35547;55.676;37.492;2022-09-09T03:20:55;5.00;;;2.20;;
49650;SDS011;35547;55.676;37.492;2022-09-09T03:21:55;7.50;;;2.10;;
49650;SDS011;35547;55.676;37.492;2022-09-09T03:22:56;3.00;;;2.43;;
49650;SDS011;35547;55.676;37.492;2022-09-09T03:23:57;3.25;;;2.10;;
49650;SDS011;35547;55.676;37.492;2022-09-09T03:24:57;3.20;;;2.00;;
49650;SDS011;35547;55.676;37.492;2022-09-09T03:25:58;5.30;;;2.00;;
49650;SDS011;35547;55.676;37.492;2022-09-09T03:26:59;4.30;;;1.90;;
49650;SDS011;35547;55.676;37.492;2022-09-09T03:27:59;4.87;;;2.20;;
49650;SDS011;35547;55.676;37.492;2022-09-09T03:29:00;5.30;;;2.20;;
49650;SDS011;35547;55.676;37.492;2022-09-09T03:30:00;5.07;;;2.00;;
49650;SDS011;35547;55.676;37.492;2022-09-09T03:31:04;4.57;;;2.35;;
49650;SDS011;35547;55.676;37.492;2022-09-09T03:33:06;5.55;;;2.20;;
49650;SDS011;35547;55.676;37.492;2022-09-09T03:34:06;5.20;;;1.90;;
49650;SDS011;35547;55.676;37.492;2022-09-09T03:35:07;5.20;;;2.17;;
49650;SDS011;35547;55.676;37.492;2022-09-09T03:36:08;4.05;;;2.20;;
49650;SDS011;35547;55.676;37.492;2022-09-09T03:37:08;2.70;;;1.67;;
49650;SDS011;35547;55.676;37.492;2022-09-09T03:38:09;3.72;;;2.33;;
49650;SDS011;35547;55.676;37.492;2022-09-09T03:39:10;3.47;;;1.93;;
49650;SDS011;35547;55.676;37.492;2022-09-09T03:40:11;6.00;;;2.17;;
49650;SDS011;35547;55.676;37.492;2022-09-09T03:41:11;2.93;;;2.00;;
49650;SDS011;35547;55.676;37.492;2022-09-09T03:42:13;5.13;;;2.00;;
49650;SDS011;35547;55.676;37.492;2022-09-09T03:43:19;10.63;;;2.20;;
49650;SDS011;35547;55.676;37.492;2022-09-09T03:44:21;3.95;;;2.20;;
49650;SDS011;35547;55.676;37.492;2022-09-09T03:45:21;3.63;;;2.20;;
49650;SDS011;35547;55.676;37.492;2022-09-09T03:46:23;6.37;;;1.97;;
49650;SDS011;35547;55.676;37.492;2022-09-09T03:47:25;6.13;;;2.58;;
49650;SDS011;35547;55.676;37.492;2022-09-09T03:48:26;4.07;;;2.30;;
49650;SDS011;35547;55.676;37.492;2022-09-09T03:49:28;8.18;;;2.40;;
49650;SDS011;35547;55.676;37.492;2022-09-09T03:50:28;9.50;;;2.23;;
49650;SDS011;35547;55.676;37.492;2022-09-09T03:51:29;5.17;;;2.00;;
49650;SDS011;35547;55.676;37.492;2022-09-09T03:52:30;5.40;;;1.93;;
49650;SDS011;35547;55.676;37.492;2022-09-09T03:53:30;3.60;;;2.27;;
49650;SDS011;35547;55.676;37.492;2022-09-09T03:54:31;5.63;;;1.90;;
49650;SDS011;35547;55.676;37.492;2022-09-09T03:55:32;4.93;;;2.20;;
49650;SDS011;35547;55.676;37.492;2022-09-09T03:56:32;4.70;;;2.40;;
49650;SDS011;35547;55.676;37.492;2022-09-09T03:57:34;3.37;;;1.97;;
49650;SDS011;35547;55.676;37.492;2022-09-09T03:58:36;4.32;;;2.10;;
49650;SDS011;35547;55.676;37.492;2022-09-09T03:59:37;8.27;;;2.22;;
49650;SDS011;35547;55.676;37.492;2022-09-09T04:00:38;3.90;;;2.13;;
49650;SDS011;35547;55.676;37.492;2022-09-09T04:01:42;4.18;;;1.88;;
49650;SDS011;35547;55.676;37.492;2022-09-09T04:02:42;3.40;;;1.97;;
49650;SDS011;35547;55.676;37.492;2022-09-09T04:03:43;4.03;;;1.83;;
49650;SDS011;35547;55.676;37.492;2022-09-09T04:04:47;4.43;;;1.90;;
49650;SDS011;35547;55.676;37.492;2022-09-09T04:05:51;3.83;;;2.13;;
49650;SDS011;35547;55.676;37.492;2022-09-09T04:06:52;5.85;;;2.00;;
49650;SDS011;35547;55.676;37.492;2022-09-09T04:08:54;2.50;;;1.60;;
49650;SDS011;35547;55.676;37.492;2022-09-09T04:09:55;7.45;;;2.17;;
49650;SDS011;35547;55.676;37.492;2022-09-09T04:10:55;4.33;;;2.20;;
49650;SDS011;35547;55.676;37.492;2022-09-09T04:12:58;3.08;;;1.92;;
49650;SDS011;35547;55.676;37.492;2022-09-09T04:13:59;3.63;;;1.85;;
49650;SDS011;35547;55.676;37.492;2022-09-09T04:15:00;5.63;;;1.83;;
49650;SDS011;35547;55.676;37.492;2022-09-09T04:16:02;4.10;;;1.92;;
49650;SDS011;35547;55.676;37.492;2022-09-09T04:17:03;2.83;;;1.77;;
49650;SDS011;35547;55.676;37.492;2022-09-09T04:18:06;3.40;;;2.20;;
49650;SDS011;35547;55.676;37.492;2022-09-09T04:19:06;4.10;;;2.00;;
49650;SDS011;35547;55.676;37.492;2022-09-09T04:20:07;2.60;;;2.13;;
49650;SDS011;35547;55.676;37.492;2022-09-09T04:21:11;3.90;;;2.03;;
49650;SDS011;35547;55.676;37.492;2022-09-09T04:22:12;5.32;;;1.70;;
49650;SDS011;35547;55.676;37.492;2022-09-09T04:23:13;2.30;;;2.10;;
49650;SDS011;35547;55.676;37.492;2022-09-09T04:24:14;2.35;;;1.67;;
49650;SDS011;35547;55.676;37.492;2022-09-09T04:25:16;6.75;;;1.80;;
49650;SDS011;35547;55.676;37.492;2022-09-09T04:26:16;4.43;;;1.80;;
49650;SDS011;35547;55.676;37.492;2022-09-09T04:27:18;2.60;;;1.70;;
49650;SDS011;35547;55.676;37.492;2022-09-09T04:28:19;4.93;;;1.73;;
49650;SDS011;35547;55.676;37.492;2022-09-09T04:29:21;4.15;;;2.28;;
49650;SDS011;35547;55.676;37.492;2022-09-09T04:30:22;5.60;;;1.90;;
49650;SDS011;35547;55.676;37.492;2022-09-09T04:31:23;2.17;;;1.48;;
49650;SDS011;35547;55.676;37.492;2022-09-09T04:32:24;4.33;;;2.07;;
49650;SDS011;35547;55.676;37.492;2022-09-09T04:33:27;5.90;;;1.65;;
49650;SDS011;35547;55.676;37.492;2022-09-09T04:34:27;1.97;;;1.80;;
49650;SDS011;35547;55.676;37.492;2022-09-09T04:35:29;4.97;;;2.17;;
49650;SDS011;35547;55.676;37.492;2022-09-09T04:36:31;3.65;;;1.92;;
49650;SDS011;35547;55.676;37.492;2022-09-09T04:37:32;3.22;;;1.92;;
49650;SDS011;35547;55.676;37.492;2022-09-09T04:38:33;4.10;;;1.80;;
49650;SDS011;35547;55.676;37.492;2022-09-09T04:39:33;4.47;;;2.03;;
49650;SDS011;35547;55.676;37.492;2022-09-09T04:40:34;3.53;;;1.90;;
49650;SDS011;35547;55.676;37.492;2022-09-09T04:41:35;5.40;;;1.58;;
49650;SDS011;35547;55.676;37.492;2022-09-09T04:42:36;2.50;;;1.57;;
49650;SDS011;35547;55.676;37.492;2022-09-09T04:43:40;3.70;;;1.95;;
49650;SDS011;35547;55.676;37.492;2022-09-09T04:44:40;8.60;;;1.95;;
49650;SDS011;35547;55.676;37.492;2022-09-09T04:45:41;1.73;;;1.50;;
49650;SDS011;35547;55.676;37.492;2022-09-09T04:46:42;5.47;;;1.90;;
49650;SDS011;35547;55.676;37.492;2022-09-09T04:47:43;4.53;;;2.03;;
49650;SDS011;35547;55.676;37.492;2022-09-09T04:48:43;7.07;;;1.90;;
49650;SDS011;35547;55.676;37.492;2022-09-09T04:49:44;3.50;;;2.00;;
49650;SDS011;35547;55.676;37.492;2022-09-09T04:50:53;4.50;;;2.00;;
49650;SDS011;35547;55.676;37.492;2022-09-09T04:51:57;4.07;;;1.85;;
49650;SDS011;35547;55.676;37.492;2022-09-09T04:53:01;4.57;;;1.97;;
49650;SDS011;35547;55.676;37.492;2022-09-09T04:54:05;4.78;;;2.25;;
49650;SDS011;35547;55.676;37.492;2022-09-09T04:55:06;5.47;;;2.33;;
49650;SDS011;35547;55.676;37.492;2022-09-09T04:56:08;2.65;;;1.77;;
49650;SDS011;35547;55.676;37.492;2022-09-09T04:57:10;7.35;;;2.03;;
49650;SDS011;35547;55.676;37.492;2022-09-09T04:58:11;6.03;;;1.90;;
49650;SDS011;35547;55.676;37.492;2022-09-09T04:59:11;5.40;;;1.87;;
49650;SDS011;35547;55.676;37.492;2022-09-09T05:00:12;3.50;;;2.10;;
49650;SDS011;35547;55.676;37.492;2022-09-09T05:01:14;3.88;;;1.95;;
49650;SDS011;35547;55.676;37.492;2022-09-09T05:02:17;6.00;;;2.20;;
49650;SDS011;35547;55.676;37.492;2022-09-09T05:03:18;3.93;;;2.20;;
49650;SDS011;35547;55.676;37.492;2022-09-09T05:04:19;6.15;;;1.80;;
49650;SDS011;35547;55.676;37.492;2022-09-09T05:05:19;3.40;;;2.07;;
49650;SDS011;35547;55.676;37.492;2022-09-09T05:06:21;6.00;;;1.77;;
49650;SDS011;35547;55.676;37.492;2022-09-09T05:07:22;4.53;;;2.00;;
49650;SDS011;35547;55.676;37.492;2022-09-09T05:08:23;5.67;;;1.70;;
49650;SDS011;35547;55.676;37.492;2022-09-09T05:09:23;3.37;;;1.70;;
49650;SDS011;35547;55.676;37.492;2022-09-09T05:10:24;7.67;;;1.90;;
49650;SDS011;35547;55.676;37.492;2022-09-09T05:11:25;5.67;;;2.20;;
49650;SDS011;35547;55.676;37.492;2022-09-09T05:12:27;2.30;;;1.77;;
49650;SDS011;35547;55.676;37.492;2022-09-09T05:13:28;5.50;;;2.00;;
49650;SDS011;35547;55.676;37.492;2022-09-09T05:14:29;4.47;;;1.80;;
49650;SDS011;35547;55.676;37.492;2022-09-09T05:15:30;3.72;;;1.50;;
49650;SDS011;35547;55.676;37.492;2022-09-09T05:16:31;3.65;;;1.77;;
49650;SDS011;35547;55.676;37.492;2022-09-09T05:17:31;6.17;;;1.87;;
49650;SDS011;35547;55.676;37.492;2022-09-09T05:18:33;3.00;;;1.88;;
49650;SDS011;35547;55.676;37.492;2022-09-09T05:19:34;5.93;;;1.50;;
49650;SDS011;35547;55.676;37.492;2022-09-09T05:20:34;4.33;;;1.77;;
49650;SDS011;35547;55.676;37.492;2022-09-09T05:21:35;5.67;;;2.20;;
49650;SDS011;35547;55.676;37.492;2022-09-09T05:22:36;7.75;;;2.00;;
49650;SDS011;35547;55.676;37.492;2022-09-09T05:23:37;3.13;;;2.00;;
49650;SDS011;35547;55.676;37.492;2022-09-09T05:24:38;3.55;;;1.73;;
49650;SDS011;35547;55.676;37.492;2022-09-09T05:25:39;5.00;;;1.70;;
49650;SDS011;35547;55.676;37.492;2022-09-09T05:27:40;9.05;;;2.05;;
49650;SDS011;35547;55.676;37.492;2022-09-09T05:28:41;5.30;;;2.03;;
49650;SDS011;35547;55.676;37.492;2022-09-09T05:29:42;4.93;;;1.70;;
49650;SDS011;35547;55.676;37.492;2022-09-09T05:30:44;5.18;;;1.80;;
49650;SDS011;35547;55.676;37.492;2022-09-09T05:31:45;2.60;;;1.57;;
49650;SDS011;35547;55.676;37.492;2022-09-09T05:32:47;6.95;;;2.15;;
49650;SDS011;35547;55.676;37.492;2022-09-09T05:33:48;4.65;;;2.00;;
49650;SDS011;35547;55.676;37.492;2022-09-09T05:34:52;7.07;;;1.40;;
49650;SDS011;35547;55.676;37.492;2022-09-09T05:35:59;5.73;;;1.77;;
49650;SDS011;35547;55.676;37.492;2022-09-09T05:37:04;5.20;;;1.60;;
49650;SDS011;35547;55.676;37.492;2022-09-09T05:38:05;3.57;;;1.63;;
49650;SDS011;35547;55.676;37.492;2022-09-09T05:39:05;8.03;;;1.53;;
49650;SDS011;35547;55.676;37.492;2022-09-09T05:40:06;5.13;;;1.53;;
49650;SDS011;35547;55.676;37.492;2022-09-09T05:41:07;7.45;;;1.75;;
49650;SDS011;35547;55.676;37.492;2022-09-09T05:42:09;3.20;;;1.90;;
49650;SDS011;35547;55.676;37.492;2022-09-09T05:43:10;8.10;;;1.73;;
49650;SDS011;35547;55.676;37.492;2022-09-09T05:44:10;5.67;;;1.70;;
49650;SDS011;35547;55.676;37.492;2022-09-09T05:45:11;12.03;;;1.40;;
49650;SDS011;35547;55.676;37.492;2022-09-09T05:46:19;5.97;;;1.60;;
49650;SDS011;35547;55.676;37.492;2022-09-09T05:47:21;6.78;;;1.65;;
49650;SDS011;35547;55.676;37.492;2022-09-09T05:48:21;3.07;;;1.73;;
49650;SDS011;35547;55.676;37.492;2022-09-09T05:49:22;5.00;;;1.60;;
49650;SDS011;35547;55.676;37.492;2022-09-09T05:50:23;3.50;;;1.80;;
49650;SDS011;35547;55.676;37.492;2022-09-09T05:51:24;7.20;;;1.93;;
49650;SDS011;35547;55.676;37.492;2022-09-09T05:52:26;3.60;;;1.50;;
49650;SDS011;35547;55.676;37.492;2022-09-09T05:53:27;4.07;;;1.57;;
49650;SDS011;35547;55.676;37.492;2022-09-09T05:54:32;7.70;;;1.35;;
49650;SDS011;35547;55.676;37.492;2022-09-09T05:55:32;3.53;;;1.40;;
49650;SDS011;35547;55.676;37.492;2022-09-09T05:56:33;5.20;;;1.70;;
49650;SDS011;35547;55.676;37.492;2022-09-09T05:57:33;7.90;;;1.83;;
49650;SDS011;35547;55.676;37.492;2022-09-09T05:58:34;2.97;;;1.50;;
49650;SDS011;35547;55.676;37.492;2022-09-09T05:59:35;3.37;;;1.50;;
49650;SDS011;35547;55.676;37.492;2022-09-09T06:00:35;4.83;;;1.33;;
49650;SDS011;35547;55.676;37.492;2022-09-09T06:01:37;5.97;;;1.50;;
49650;SDS011;35547;55.676;37.492;2022-09-09T06:02:40;5.18;;;1.60;;
49650;SDS011;35547;55.676;37.492;2022-09-09T06:03:42;5.90;;;1.50;;
49650;SDS011;35547;55.676;37.492;2022-09-09T06:04:43;9.60;;;1.65;;
49650;SDS011;35547;55.676;37.492;2022-09-09T06:05:44;4.30;;;1.50;;
49650;SDS011;35547;55.676;37.492;2022-09-09T06:06:44;6.43;;;1.60;;
49650;SDS011;35547;55.676;37.492;2022-09-09T06:07:45;3.67;;;1.50;;
49650;SDS011;35547;55.676;37.492;2022-09-09T06:08:46;6.47;;;1.40;;
49650;SDS011;35547;55.676;37.492;2022-09-09T06:09:47;6.90;;;1.73;;
49650;SDS011;35547;55.676;37.492;2022-09-09T06:10:47;5.30;;;1.40;;
49650;SDS011;35547;55.676;37.492;2022-09-09T06:11:48;9.07;;;1.40;;
49650;SDS011;35547;55.676;37.492;2022-09-09T06:12:48;2.80;;;1.53;;
49650;SDS011;35547;55.676;37.492;2022-09-09T06:13:49;3.73;;;1.43;;
49650;SDS011;35547;55.676;37.492;2022-09-09T06:14:54;4.80;;;1.30;;
49650;SDS011;35547;55.676;37.492;2022-09-09T06:15:55;5.23;;;1.47;;
49650;SDS011;35547;55.676;37.492;2022-09-09T06:16:55;5.03;;;1.20;;
49650;SDS011;35547;55.676;37.492;2022-09-09T06:17:56;6.40;;;1.52;;
49650;SDS011;35547;55.676;37.492;2022-09-09T06:18:57;6.33;;;1.07;;
49650;SDS011;35547;55.676;37.492;2022-09-09T06:19:58;3.30;;;1.52;;
49650;SDS011;35547;55.676;37.492;2022-09-09T06:20:59;5.55;;;1.60;;
49650;SDS011;35547;55.676;37.492;2022-09-09T06:22:04;4.97;;;1.70;;
49650;SDS011;35547;55.676;37.492;2022-09-09T06:23:05;4.50;;;1.65;;
49650;SDS011;35547;55.676;37.492;2022-09-09T06:24:06;5.60;;;1.47;;
49650;SDS011;35547;55.676;37.492;2022-09-09T06:25:10;9.48;;;1.23;;
49650;SDS011;35547;55.676;37.492;2022-09-09T06:27:19;8.43;;;1.20;;
49650;SDS011;35547;55.676;37.492;2022-09-09T06:28:21;6.13;;;1.02;;
49650;SDS011;35547;55.676;37.492;2022-09-09T06:29:21;5.50;;;1.10;;
49650;SDS011;35547;55.676;37.492;2022-09-09T06:30:22;2.07;;;1.30;;
49650;SDS011;35547;55.676;37.492;2022-09-09T06:31:23;6.20;;;1.20;;
49650;SDS011;35547;55.676;37.492;2022-09-09T06:32:25;4.47;;;0.90;;
49650;SDS011;35547;55.676;37.492;2022-09-09T06:33:27;4.18;;;1.55;;
49650;SDS011;35547;55.676;37.492;2022-09-09T06:34:31;6.15;;;1.40;;
49650;SDS011;35547;55.676;37.492;2022-09-09T06:35:32;2.00;;;1.10;;
49650;SDS011;35547;55.676;37.492;2022-09-09T06:36:48;2.47;;;1.20;;
49650;SDS011;35547;55.676;37.492;2022-09-09T06:37:48;6.30;;;1.13;;
49650;SDS011;35547;55.676;37.492;2022-09-09T06:38:49;3.23;;;1.07;;
49650;SDS011;35547;55.676;37.492;2022-09-09T06:39:49;5.27;;;1.50;;
49650;SDS011;35547;55.676;37.492;2022-09-09T06:40:54;2.42;;;1.30;;
49650;SDS011;35547;55.676;37.492;2022-09-09T06:41:56;5.75;;;1.00;;
49650;SDS011;35547;55.676;37.492;2022-09-09T06:43:00;6.35;;;1.38;;
49650;SDS011;35547;55.676;37.492;2022-09-09T06:44:02;7.88;;;1.30;;
49650;SDS011;35547;55.676;37.492;2022-09-09T06:45:03;5.03;;;1.23;;
49650;SDS011;35547;55.676;37.492;2022-09-09T06:46:05;3.63;;;1.00;;
49650;SDS011;35547;55.676;37.492;2022-09-09T06:47:08;5.88;;;1.15;;
49650;SDS011;35547;55.676;37.492;2022-09-09T06:48:08;11.10;;;1.60;;
49650;SDS011;35547;55.676;37.492;2022-09-09T06:49:09;8.70;;;1.10;;
49650;SDS011;35547;55.676;37.492;2022-09-09T06:50:10;11.67;;;1.80;;
49650;SDS011;35547;55.676;37.492;2022-09-09T06:51:12;7.13;;;1.13;;
49650;SDS011;35547;55.676;37.492;2022-09-09T06:52:13;4.63;;;1.20;;
49650;SDS011;35547;55.676;37.492;2022-09-09T06:53:15;6.87;;;1.63;;
49650;SDS011;35547;55.676;37.492;2022-09-09T06:54:19;7.70;;;1.27;;
49650;SDS011;35547;55.676;37.492;2022-09-09T06:55:20;3.30;;;1.05;;
49650;SDS011;35547;55.676;37.492;2022-09-09T06:56:22;7.70;;;1.00;;
49650;SDS011;35547;55.676;37.492;2022-09-09T06:57:32;3.08;;;1.05;;
49650;SDS011;35547;55.676;37.492;2022-09-09T06:58:33;6.50;;;1.40;;
49650;SDS011;35547;55.676;37.492;2022-09-09T06:59:34;3.85;;;1.10;;
49650;SDS011;35547;55.676;37.492;2022-09-09T07:00:35;3.47;;;1.00;;
49650;SDS011;35547;55.676;37.492;2022-09-09T07:01:38;5.95;;;1.67;;
49650;SDS011;35547;55.676;37.492;2022-09-09T07:02:51;2.83;;;1.02;;